createdAt,value
2019-05-19T00:00:51.693Z,116.57
2019-05-19T00:03:21.197Z,124.27
2019-05-19T00:05:50.624Z,119.53
2019-05-19T00:08:20.075Z,115.80
2019-05-19T00:10:49.498Z,116.70
2019-05-19T00:13:19.002Z,116.83
2019-05-19T00:15:48.430Z,114.37
2019-05-19T00:18:17.861Z,126.57
2019-05-19T00:20:47.303Z,125.17
2019-05-19T00:23:16.726Z,129.70
2019-05-19T00:25:46.164Z,125.60
2019-05-19T00:28:15.613Z,127.50
2019-05-19T00:30:45.308Z,118.33
2019-05-19T00:33:14.746Z,129.97
2019-05-19T00:35:44.169Z,130.87
2019-05-19T00:38:13.802Z,136.03
2019-05-19T00:40:43.283Z,138.37
2019-05-19T00:43:12.735Z,136.23
2019-05-19T00:45:42.243Z,129.53
2019-05-19T00:48:11.750Z,130.57
2019-05-19T00:50:41.260Z,140.07
2019-05-19T00:53:10.688Z,138.70
2019-05-19T00:55:40.258Z,131.67
2019-05-19T00:58:10.742Z,136.33
2019-05-19T01:00:40.244Z,149.43
2019-05-19T01:03:09.697Z,139.30
2019-05-19T01:05:39.118Z,148.33
2019-05-19T01:08:08.638Z,142.90
2019-05-19T01:10:38.149Z,145.30
2019-05-19T01:13:07.579Z,143.73
2019-05-19T01:15:37.096Z,144.93
2019-05-19T01:18:06.518Z,144.60
2019-05-19T01:20:35.963Z,153.17
2019-05-19T01:23:05.660Z,152.70
2019-05-19T01:25:35.087Z,152.47
2019-05-19T01:28:04.934Z,145.77
2019-05-19T01:30:34.438Z,146.70
2019-05-19T01:33:03.975Z,144.87
2019-05-19T01:35:33.476Z,134.97
2019-05-19T01:38:02.939Z,147.00
2019-05-19T01:40:32.389Z,150.47
2019-05-19T01:43:01.807Z,158.90
2019-05-19T01:45:31.260Z,137.70
2019-05-19T01:48:00.686Z,156.17
2019-05-19T01:50:30.132Z,143.70
2019-05-19T01:52:59.585Z,143.90
2019-05-19T01:55:29.073Z,162.37
2019-05-19T01:57:58.512Z,162.93
2019-05-19T02:00:28.086Z,144.90
2019-05-19T02:02:57.549Z,159.60
2019-05-19T02:05:26.965Z,159.83
2019-05-19T02:07:56.901Z,168.33
2019-05-19T02:10:26.321Z,155.40
2019-05-19T02:12:55.745Z,160.43
2019-05-19T02:15:25.652Z,160.03
2019-05-19T02:17:55.110Z,158.13
2019-05-19T02:20:32.802Z,163.97
2019-05-19T02:22:55.753Z,157.73
2019-05-19T02:25:25.330Z,151.80
2019-05-19T02:27:54.852Z,167.30
2019-05-19T02:30:24.338Z,159.63
2019-05-19T02:32:53.776Z,160.23
2019-05-19T02:35:23.280Z,166.03
2019-05-19T02:37:52.717Z,156.23
2019-05-19T02:40:22.356Z,171.37
2019-05-19T02:42:53.525Z,161.13
2019-05-19T02:45:23.604Z,163.90
2019-05-19T02:47:54.268Z,159.07
2019-05-19T02:50:25.927Z,162.37
2019-05-19T02:52:57.798Z,169.97
2019-05-19T02:55:27.761Z,169.37
2019-05-19T02:57:58.354Z,167.23
2019-05-19T03:00:37.922Z,163.67
2019-05-19T03:03:08.438Z,171.20
2019-05-19T03:05:38.940Z,172.37
2019-05-19T03:08:08.949Z,173.97
2019-05-19T03:10:38.755Z,172.90
2019-05-19T03:13:08.580Z,177.23
2019-05-19T03:15:38.043Z,175.53
2019-05-19T03:18:07.610Z,174.33
2019-05-19T03:20:37.411Z,167.67
2019-05-19T03:23:06.844Z,186.40
2019-05-19T03:25:36.354Z,181.17
2019-05-19T03:28:05.952Z,177.97
2019-05-19T03:30:37.037Z,176.73
2019-05-19T03:33:16.961Z,178.20
2019-05-19T03:35:47.119Z,186.30
2019-05-19T03:38:16.549Z,186.27
2019-05-19T03:40:46.008Z,190.90
2019-05-19T03:43:15.433Z,179.60
2019-05-19T03:45:48.009Z,183.50
2019-05-19T03:48:18.001Z,192.17
2019-05-19T03:50:47.715Z,184.17
2019-05-19T03:53:17.245Z,183.80
2019-05-19T03:55:46.684Z,186.73
2019-05-19T03:58:16.125Z,189.17
2019-05-19T04:00:45.545Z,203.07
2019-05-19T04:03:17.707Z,183.33
2019-05-19T04:05:47.216Z,186.80
2019-05-19T04:08:16.703Z,200.43
2019-05-19T04:10:46.142Z,196.03
2019-05-19T04:13:15.583Z,197.47
2019-05-19T04:15:45.001Z,191.23
2019-05-19T04:18:14.446Z,198.80
2019-05-19T04:20:44.101Z,195.03
2019-05-19T04:23:13.546Z,196.37
2019-05-19T04:25:42.985Z,191.37
2019-05-19T04:28:12.427Z,197.50
2019-05-19T04:30:41.865Z,191.50
2019-05-19T04:33:11.303Z,206.53
2019-05-19T04:35:43.670Z,193.63
2019-05-19T04:38:13.100Z,196.07
2019-05-19T04:40:43.838Z,191.90
2019-05-19T04:43:13.301Z,194.50
2019-05-19T04:45:42.722Z,190.57
2019-05-19T04:48:12.150Z,196.33
2019-05-19T04:50:41.587Z,188.20
2019-05-19T04:53:11.035Z,186.60
2019-05-19T04:55:40.528Z,203.87
2019-05-19T04:58:09.963Z,202.57
2019-05-19T05:00:39.400Z,204.43
2019-05-19T05:03:08.835Z,196.17
2019-05-19T05:05:38.282Z,195.93
2019-05-19T05:08:07.722Z,193.07
2019-05-19T05:10:37.450Z,197.17
2019-05-19T05:13:06.904Z,196.50
2019-05-19T05:15:36.324Z,202.37
2019-05-19T05:18:05.944Z,198.53
2019-05-19T05:20:35.372Z,188.83
2019-05-19T05:23:05.267Z,197.90
2019-05-19T05:25:34.712Z,200.43
2019-05-19T05:28:04.214Z,194.60
2019-05-19T05:30:33.671Z,190.63
2019-05-19T05:33:03.089Z,176.67
2019-05-19T05:35:32.555Z,177.40
2019-05-19T05:38:01.988Z,183.57
2019-05-19T05:40:31.413Z,183.93
2019-05-19T05:43:01.197Z,183.40
2019-05-19T05:45:30.783Z,174.70
2019-05-19T05:48:00.318Z,184.10
2019-05-19T05:50:29.739Z,174.70
2019-05-19T05:52:59.152Z,184.07
2019-05-19T05:55:28.652Z,175.90
2019-05-19T05:57:58.393Z,175.33
2019-05-19T06:00:27.968Z,172.90
2019-05-19T06:02:57.461Z,181.47
2019-05-19T06:05:26.901Z,179.20
2019-05-19T06:07:56.349Z,185.07
2019-05-19T06:10:26.102Z,176.13
2019-05-19T06:12:55.552Z,167.50
2019-05-19T06:15:24.976Z,173.20
2019-05-19T06:17:54.448Z,172.37
2019-05-19T06:20:23.868Z,172.67
2019-05-19T06:22:56.982Z,172.53
2019-05-19T06:25:24.757Z,172.40
2019-05-19T06:27:54.220Z,173.10
2019-05-19T06:30:23.737Z,178.33
2019-05-19T06:32:57.368Z,166.67
2019-05-19T06:35:26.867Z,173.10
2019-05-19T06:37:56.326Z,157.90
2019-05-19T06:40:26.326Z,159.70
2019-05-19T06:42:56.187Z,168.07
2019-05-19T06:45:25.653Z,167.13
2019-05-19T06:47:55.368Z,162.50
2019-05-19T06:50:24.868Z,156.70
2019-05-19T06:52:54.306Z,156.10
2019-05-19T06:55:23.834Z,159.80
2019-05-19T06:57:53.261Z,156.27
2019-05-19T07:00:23.234Z,156.83
2019-05-19T07:02:52.643Z,160.97
2019-05-19T07:05:22.072Z,148.40
2019-05-19T07:07:51.527Z,145.63
2019-05-19T07:10:21.043Z,152.13
2019-05-19T07:12:50.508Z,141.27
2019-05-19T07:15:20.290Z,150.67
2019-05-19T07:17:49.720Z,158.50
2019-05-19T07:20:19.227Z,155.13
2019-05-19T07:22:49.125Z,151.17
2019-05-19T07:25:18.597Z,152.70
2019-05-19T07:27:48.009Z,146.57
2019-05-19T07:30:18.347Z,147.97
2019-05-19T07:32:47.792Z,155.57
2019-05-19T07:35:17.378Z,165.40
2019-05-19T07:37:46.969Z,145.47
2019-05-19T07:40:16.478Z,152.50
2019-05-19T07:42:46.266Z,152.17
2019-05-19T07:45:16.181Z,148.80
2019-05-19T07:47:45.619Z,136.30
2019-05-19T07:50:15.129Z,139.10
2019-05-19T07:52:44.564Z,141.20
2019-05-19T07:55:14.248Z,136.13
2019-05-19T07:57:43.713Z,142.73
2019-05-19T08:00:13.633Z,141.37
2019-05-19T08:02:43.066Z,143.90
2019-05-19T08:05:12.654Z,138.07
2019-05-19T08:07:42.188Z,141.87
2019-05-19T08:10:11.839Z,133.33
2019-05-19T08:12:41.274Z,140.17
2019-05-19T08:15:11.631Z,143.43
2019-05-19T08:17:41.066Z,141.40
2019-05-19T08:20:11.875Z,133.43
2019-05-19T08:22:41.279Z,135.23
2019-05-19T08:25:11.109Z,138.53
2019-05-19T08:27:40.548Z,133.73
2019-05-19T08:30:11.375Z,140.73
2019-05-19T08:32:40.832Z,134.23
2019-05-19T08:35:10.551Z,134.07
2019-05-19T08:37:40.012Z,136.70
2019-05-19T08:40:09.843Z,138.23
2019-05-19T08:42:39.274Z,142.90
2019-05-19T08:45:10.266Z,141.03
2019-05-19T08:47:39.694Z,136.87
2019-05-19T08:50:09.499Z,147.33
2019-05-19T08:52:38.998Z,140.53
2019-05-19T08:55:09.164Z,142.13
2019-05-19T08:57:38.626Z,146.23
2019-05-19T09:00:08.781Z,147.60
2019-05-19T09:02:38.266Z,150.13
2019-05-19T09:05:08.804Z,149.03
2019-05-19T09:07:38.244Z,143.83
2019-05-19T09:10:11.489Z,137.23
2019-05-19T09:12:40.930Z,133.90
2019-05-19T09:15:12.122Z,137.13
2019-05-19T09:17:41.554Z,129.53
2019-05-19T09:20:12.048Z,118.63
2019-05-19T09:22:41.830Z,116.90
2019-05-19T09:25:11.571Z,100.23
2019-05-19T09:27:41.078Z,97.50
2019-05-19T09:30:12.198Z,102.43
2019-05-19T09:32:42.012Z,99.37
2019-05-19T09:35:13.408Z,99.77
2019-05-19T09:37:42.833Z,98.00
2019-05-19T09:40:13.112Z,94.13
2019-05-19T09:42:42.545Z,89.57
2019-05-19T09:45:13.819Z,93.70
2019-05-19T09:47:43.574Z,84.47
2019-05-19T09:50:14.905Z,92.00
2019-05-19T09:52:44.423Z,85.17
2019-05-19T09:55:14.180Z,87.80
2019-05-19T09:57:43.637Z,92.00
2019-05-19T10:00:13.900Z,87.67
2019-05-19T10:02:43.358Z,92.60
2019-05-19T10:05:13.163Z,91.00
2019-05-19T10:07:42.584Z,94.27
2019-05-19T10:10:24.028Z,92.43
2019-05-19T10:12:53.467Z,99.40
2019-05-19T10:15:22.926Z,87.37
2019-05-19T10:17:52.341Z,87.73
2019-05-19T10:20:21.886Z,85.03
2019-05-19T10:22:51.403Z,88.37
2019-05-19T10:25:22.869Z,84.53
2019-05-19T10:27:52.275Z,81.40
2019-05-19T10:30:21.936Z,79.23
2019-05-19T10:32:51.435Z,83.27
2019-05-19T10:35:20.885Z,78.60
2019-05-19T10:37:50.322Z,71.17
2019-05-19T10:40:20.482Z,71.77
2019-05-19T10:42:49.905Z,74.50
2019-05-19T10:45:19.572Z,74.97
2019-05-19T10:47:49.012Z,74.27
2019-05-19T10:50:18.504Z,71.23
2019-05-19T10:52:48.302Z,74.03
2019-05-19T10:55:17.918Z,74.33
2019-05-19T10:57:47.368Z,65.50
2019-05-19T11:00:17.310Z,70.97
2019-05-19T11:02:46.743Z,78.83
2019-05-19T11:05:16.406Z,70.77
2019-05-19T11:07:45.827Z,78.53
2019-05-19T11:10:15.685Z,74.83
2019-05-19T11:12:47.009Z,77.63
2019-05-19T11:15:16.827Z,75.53
2019-05-19T11:17:46.263Z,73.50
2019-05-19T11:20:15.835Z,70.70
2019-05-19T11:22:45.305Z,66.17
2019-05-19T11:25:15.004Z,75.33
2019-05-19T11:27:44.761Z,71.07
2019-05-19T11:30:14.734Z,65.43
2019-05-19T11:32:44.160Z,68.67
2019-05-19T11:35:13.666Z,64.67
2019-05-19T11:37:43.098Z,58.17
2019-05-19T11:40:12.683Z,63.33
2019-05-19T11:42:42.115Z,57.50
2019-05-19T11:45:11.676Z,57.80
2019-05-19T11:47:41.414Z,58.20
2019-05-19T11:50:11.277Z,54.73
2019-05-19T11:52:40.717Z,59.17
2019-05-19T11:55:10.391Z,57.63
2019-05-19T11:57:39.823Z,57.07
2019-05-19T12:00:10.199Z,59.53
2019-05-19T12:02:39.622Z,58.40
2019-05-19T12:05:09.211Z,57.00
2019-05-19T12:07:38.641Z,58.40
2019-05-19T12:10:08.887Z,61.50
2019-05-19T12:12:38.400Z,58.07
2019-05-19T12:15:09.247Z,62.57
2019-05-19T12:17:38.743Z,56.53
2019-05-19T12:20:08.819Z,65.53
2019-05-19T12:22:38.735Z,58.67
2019-05-19T12:25:08.833Z,59.00
2019-05-19T12:27:38.281Z,58.97
2019-05-19T12:30:08.942Z,60.57
2019-05-19T12:32:38.372Z,61.47
2019-05-19T12:35:10.638Z,55.20
2019-05-19T12:37:40.048Z,49.83
2019-05-19T12:40:09.715Z,58.20
2019-05-19T12:42:39.407Z,52.27
2019-05-19T12:45:10.218Z,44.43
2019-05-19T12:47:39.924Z,47.77
2019-05-19T12:50:10.289Z,47.40
2019-05-19T12:52:39.715Z,48.30
2019-05-19T12:55:09.858Z,47.93
2019-05-19T12:57:39.661Z,46.90
2019-05-19T13:00:09.324Z,51.13
2019-05-19T13:02:38.760Z,46.77
2019-05-19T13:05:09.142Z,47.37
2019-05-19T13:07:38.633Z,47.60
2019-05-19T13:10:08.980Z,48.60
2019-05-19T13:12:38.505Z,48.00
2019-05-19T13:15:11.568Z,46.37
2019-05-19T13:17:41.095Z,49.47
2019-05-19T13:20:10.975Z,49.30
2019-05-19T13:22:40.428Z,47.67
2019-05-19T13:25:09.991Z,49.80
2019-05-19T13:27:39.417Z,49.40
2019-05-19T13:30:09.879Z,49.37
2019-05-19T13:32:39.378Z,52.93
2019-05-19T13:35:09.256Z,49.47
2019-05-19T13:37:39.088Z,50.97
2019-05-19T13:40:08.924Z,47.40
2019-05-19T13:42:38.419Z,48.87
2019-05-19T13:45:08.737Z,46.93
2019-05-19T13:47:38.362Z,48.90
2019-05-19T13:50:08.852Z,46.53
2019-05-19T13:52:38.384Z,51.23
2019-05-19T13:55:09.520Z,50.60
2019-05-19T13:57:39.230Z,50.07
2019-05-19T14:00:10.663Z,44.93
2019-05-19T14:02:40.334Z,51.67
2019-05-19T14:05:10.422Z,46.97
2019-05-19T14:07:39.875Z,46.93
2019-05-19T14:10:09.906Z,48.87
2019-05-19T14:12:39.440Z,46.73
2019-05-19T14:15:09.354Z,45.57
2019-05-19T14:17:39.111Z,46.33
2019-05-19T14:20:09.284Z,48.77
2019-05-19T14:22:38.697Z,46.50
2019-05-19T14:25:08.291Z,46.60
2019-05-19T14:27:37.710Z,49.40
2019-05-19T14:30:08.979Z,51.10
2019-05-19T14:32:38.414Z,49.53
2019-05-19T14:35:10.750Z,47.33
2019-05-19T14:37:40.264Z,56.93
2019-05-19T14:40:10.103Z,49.07
2019-05-19T14:42:43.716Z,47.90
2019-05-19T14:45:14.071Z,49.60
2019-05-19T14:47:43.521Z,51.30
2019-05-19T14:50:13.183Z,48.13
2019-05-19T14:52:42.616Z,51.27
2019-05-19T14:55:12.122Z,46.57
2019-05-19T14:57:45.456Z,48.80
2019-05-19T15:00:14.806Z,52.47
2019-05-19T15:02:44.235Z,51.47
2019-05-19T15:05:14.798Z,52.47
2019-05-19T15:07:44.321Z,51.20
2019-05-19T15:10:14.765Z,48.60
2019-05-19T15:12:44.358Z,55.13
2019-05-19T15:15:14.332Z,48.80
2019-05-19T15:17:43.751Z,56.90
2019-05-19T15:20:13.859Z,50.77
2019-05-19T15:22:43.590Z,45.60
2019-05-19T15:25:14.057Z,48.73
2019-05-19T15:27:43.477Z,46.60
2019-05-19T15:30:14.249Z,48.67
2019-05-19T15:32:43.686Z,51.30
2019-05-19T15:35:13.439Z,47.57
2019-05-19T15:37:42.890Z,50.03
2019-05-19T15:40:12.733Z,49.47
2019-05-19T15:42:42.158Z,47.57
2019-05-19T15:45:12.109Z,47.67
2019-05-19T15:47:41.624Z,45.37
2019-05-19T15:50:11.502Z,39.93
2019-05-19T15:52:40.931Z,41.47
2019-05-19T15:55:10.500Z,44.50
2019-05-19T15:57:40.308Z,47.20
2019-05-19T16:00:10.674Z,48.73
2019-05-19T16:02:40.172Z,47.63
2019-05-19T16:05:09.899Z,47.73
2019-05-19T16:07:39.342Z,50.07
2019-05-19T16:10:10.479Z,48.90
2019-05-19T16:12:39.910Z,52.00
2019-05-19T16:15:10.374Z,57.70
2019-05-19T16:17:39.791Z,58.03
2019-05-19T16:20:09.745Z,59.83
2019-05-19T16:22:39.252Z,57.00
2019-05-19T16:25:09.741Z,55.73
2019-05-19T16:27:39.372Z,63.17
2019-05-19T16:30:09.523Z,57.73
2019-05-19T16:32:39.223Z,60.07
2019-05-19T16:35:08.829Z,60.40
2019-05-19T16:37:38.699Z,59.83
2019-05-19T16:40:09.062Z,61.17
2019-05-19T16:42:38.476Z,60.30
2019-05-19T16:45:10.247Z,60.33
2019-05-19T16:47:39.686Z,54.83
2019-05-19T16:50:10.821Z,55.33
2019-05-19T16:52:40.235Z,57.57
2019-05-19T16:55:23.605Z,58.97
2019-05-19T16:57:53.261Z,54.63
2019-05-19T17:00:24.234Z,48.97
2019-05-19T17:02:53.756Z,48.43
2019-05-19T17:05:23.333Z,46.70
2019-05-19T17:07:52.890Z,47.73
2019-05-19T17:10:22.311Z,43.53
2019-05-19T17:12:51.743Z,45.83
2019-05-19T17:15:21.634Z,42.50
2019-05-19T17:17:51.286Z,43.30
2019-05-19T17:20:21.363Z,40.17
2019-05-19T17:22:50.933Z,37.80
2019-05-19T17:25:20.435Z,31.83
2019-05-19T17:27:50.125Z,35.97
2019-05-19T17:30:21.053Z,31.77
2019-05-19T17:32:50.508Z,34.87
2019-05-19T17:35:20.081Z,40.57
2019-05-19T17:37:49.504Z,34.50
2019-05-19T17:40:19.508Z,40.87
2019-05-19T17:42:49.002Z,33.17
2019-05-19T17:45:18.904Z,38.70
2019-05-19T17:47:48.345Z,38.10
2019-05-19T17:50:22.521Z,33.53
2019-05-19T17:52:52.040Z,36.87
2019-05-19T17:55:21.618Z,37.67
2019-05-19T17:57:51.208Z,38.90
2019-05-19T18:00:37.402Z,37.00
2019-05-19T18:03:07.858Z,34.37
2019-05-19T18:05:37.547Z,30.63
2019-05-19T18:08:07.233Z,37.80
2019-05-19T18:10:36.820Z,29.60
2019-05-19T18:13:06.323Z,32.40
2019-05-19T18:15:36.987Z,36.17
2019-05-19T18:18:06.422Z,33.50
2019-05-19T18:20:35.929Z,37.73
2019-05-19T18:23:05.400Z,32.77
2019-05-19T18:25:34.938Z,33.23
2019-05-19T18:28:04.510Z,37.67
2019-05-19T18:30:33.995Z,32.77
2019-05-19T18:33:03.761Z,34.90
2019-05-19T18:35:33.372Z,36.17
2019-05-19T18:38:02.793Z,36.53
2019-05-19T18:40:32.579Z,34.90
2019-05-19T18:43:02.009Z,42.00
2019-05-19T18:45:31.465Z,37.20
2019-05-19T18:48:00.903Z,47.00
2019-05-19T18:50:30.305Z,40.17
2019-05-19T18:53:00.090Z,36.33
2019-05-19T18:55:29.804Z,37.83
2019-05-19T18:57:59.264Z,39.47
2019-05-19T19:00:35.350Z,45.30
2019-05-19T19:03:05.504Z,46.93
2019-05-19T19:05:35.020Z,48.50
2019-05-19T19:08:06.164Z,50.27
2019-05-19T19:10:35.643Z,49.47
2019-05-19T19:13:05.089Z,53.93
2019-05-19T19:15:34.622Z,53.80
2019-05-19T19:18:04.036Z,61.30
2019-05-19T19:20:34.359Z,60.13
2019-05-19T19:23:03.946Z,64.50
2019-05-19T19:25:33.742Z,63.70
2019-05-19T19:28:03.262Z,65.00
2019-05-19T19:30:34.418Z,60.87
2019-05-19T19:33:03.892Z,61.80
2019-05-19T19:35:39.132Z,60.47
2019-05-19T19:38:04.509Z,65.67
2019-05-19T19:40:34.312Z,58.73
2019-05-19T19:43:03.877Z,58.40
2019-05-19T19:45:33.383Z,50.63
2019-05-19T19:48:02.835Z,54.70
2019-05-19T19:50:32.252Z,59.30
2019-05-19T19:53:01.821Z,65.73
2019-05-19T19:55:31.291Z,64.93
2019-05-19T19:58:00.711Z,64.53
2019-05-19T20:00:44.403Z,70.77
2019-05-19T20:03:14.272Z,68.30
2019-05-19T20:05:44.586Z,70.60
2019-05-19T20:08:14.084Z,70.27
2019-05-19T20:10:43.539Z,81.03
2019-05-19T20:13:12.972Z,78.23
2019-05-19T20:15:42.470Z,83.07
2019-05-19T20:18:11.916Z,84.90
2019-05-19T20:20:41.353Z,81.07
2019-05-19T20:23:10.863Z,84.70
2019-05-19T20:25:40.294Z,92.73
2019-05-19T20:28:09.729Z,96.80
2019-05-19T20:30:39.326Z,102.40
2019-05-19T20:33:11.873Z,93.93
2019-05-19T20:35:42.593Z,93.53
2019-05-19T20:38:14.715Z,98.77
2019-05-19T20:40:44.712Z,107.77
2019-05-19T20:43:14.447Z,99.77
2019-05-19T20:45:43.957Z,97.67
2019-05-19T20:48:13.491Z,97.33
2019-05-19T20:50:42.991Z,109.30
2019-05-19T20:53:12.517Z,104.70
2019-05-19T20:55:41.932Z,106.80
2019-05-19T20:58:11.379Z,107.30
2019-05-19T21:00:49.980Z,109.07
2019-05-19T21:03:11.962Z,107.13
2019-05-19T21:05:41.420Z,116.77
2019-05-19T21:08:10.923Z,117.50
2019-05-19T21:10:40.440Z,117.63
2019-05-19T21:13:09.888Z,138.57
2019-05-19T21:15:39.325Z,132.13
2019-05-19T21:18:08.759Z,125.83
2019-05-19T21:20:38.257Z,136.07
2019-05-19T21:23:07.687Z,129.60
2019-05-19T21:25:37.157Z,135.00
2019-05-19T21:28:06.588Z,139.33
2019-05-19T21:30:36.020Z,138.80
2019-05-19T21:33:05.795Z,140.57
2019-05-19T21:35:35.602Z,141.37
2019-05-19T21:38:05.099Z,150.90
2019-05-19T21:40:34.526Z,159.50
2019-05-19T21:43:03.980Z,163.83
2019-05-19T21:45:33.410Z,153.73
2019-05-19T21:48:02.859Z,140.67
2019-05-19T21:50:32.480Z,148.87
2019-05-19T21:53:01.976Z,139.93
2019-05-19T21:55:31.792Z,146.97
2019-05-19T21:58:01.208Z,147.33
2019-05-19T22:00:31.401Z,160.50
2019-05-19T22:03:00.844Z,158.07
2019-05-19T22:05:30.271Z,143.90
2019-05-19T22:08:06.930Z,151.23
2019-05-19T22:10:36.356Z,149.63
2019-05-19T22:13:05.800Z,148.20
2019-05-19T22:15:35.299Z,151.57
2019-05-19T22:18:04.821Z,150.13
2019-05-19T22:20:34.587Z,156.23
2019-05-19T22:23:04.396Z,162.90
2019-05-19T22:25:33.911Z,140.73
2019-05-19T22:28:03.346Z,160.90
2019-05-19T22:30:32.818Z,159.30
2019-05-19T22:33:02.303Z,166.70
2019-05-19T22:35:32.100Z,171.73
2019-05-19T22:38:01.547Z,144.80
2019-05-19T22:40:31.065Z,154.40
2019-05-19T22:43:00.509Z,154.60
2019-05-19T22:45:29.931Z,149.83
2019-05-19T22:47:59.710Z,150.50
2019-05-19T22:50:29.149Z,153.20
2019-05-19T22:52:58.574Z,144.27
2019-05-19T22:55:28.014Z,140.50
2019-05-19T22:57:57.820Z,124.17
2019-05-19T23:00:27.602Z,124.33
2019-05-19T23:02:57.043Z,136.47
2019-05-19T23:05:45.808Z,141.63
2019-05-19T23:08:15.318Z,143.23
2019-05-19T23:10:44.739Z,141.23
2019-05-19T23:13:14.189Z,135.30
2019-05-19T23:15:43.627Z,138.77
2019-05-19T23:18:13.042Z,136.60
2019-05-19T23:20:42.564Z,128.13
2019-05-19T23:23:11.990Z,132.93
2019-05-19T23:25:41.796Z,134.60
2019-05-19T23:28:11.243Z,136.13
2019-05-19T23:30:40.687Z,124.37
2019-05-19T23:33:10.131Z,125.77
2019-05-19T23:35:39.562Z,116.57
2019-05-19T23:38:09.004Z,111.93
2019-05-19T23:40:38.434Z,106.67
2019-05-19T23:43:07.890Z,111.67
2019-05-19T23:45:37.329Z,111.07
2019-05-19T23:48:07.114Z,109.03
2019-05-19T23:50:36.548Z,123.30
2019-05-19T23:53:05.975Z,110.97
2019-05-19T23:55:35.436Z,112.07
2019-05-19T23:58:04.948Z,102.83
